Time;durP1;ratioP1;P1;durP2;ratioP2;P2;SDS_P1;SDS_P2;PMS_P1;PMS_P2;Temp;Humidity;BMP_temperature;BMP_pressure;BME280_temperature;BME280_humidity;BME280_pressure;Samples;Min_cycle;Max_cycle;Signal;HPM_P1;HPM_P2
2022/03/04 00:04:10;;;;;;;19.07;6.03;;;;;;;;;;10187890;29;20098;-66
2022/03/04 00:09:15;;;;;;;18.43;6.40;;;;;;;;;;10190175;29;20070;-67
2022/03/04 00:14:19;;;;;;;10.73;2.80;;;;;;;;;;10180713;29;20048;-67
2022/03/04 00:19:23;;;;;;;17.20;6.30;;;;;;;;;;10193565;29;20523;-67
2022/03/04 00:24:27;;;;;;;18.77;5.87;;;;;;;;;;10174000;29;20386;-67
2022/03/04 00:29:30;;;;;;;19.75;6.60;;;;;;;;;;10188208;29;20036;-66
2022/03/04 00:34:35;;;;;;;14.18;4.72;;;;;;;;;;10193390;29;20381;-67
2022/03/04 00:39:39;;;;;;;20.33;6.17;;;;;;;;;;10189420;29;20520;-66
2022/03/04 00:44:42;;;;;;;20.63;7.27;;;;;;;;;;10196046;29;20483;-66
2022/03/04 00:49:47;;;;;;;21.33;6.72;;;;;;;;;;10173855;29;20509;-67
2022/03/04 00:54:51;;;;;;;13.70;5.03;;;;;;;;;;10174662;29;20366;-66
2022/03/04 00:59:54;;;;;;;13.00;4.32;;;;;;;;;;10181895;29;20370;-66
2022/03/04 01:04:59;;;;;;;3.63;1.80;;;;;;;;;;10196344;29;20421;-66
2022/03/04 01:10:03;;;;;;;11.57;4.10;;;;;;;;;;10193166;29;20024;-66
2022/03/04 01:15:07;;;;;;;;;;;;;;;;;;10201726;29;20093;-66
2022/03/04 01:20:11;;;;;;;16.33;6.13;;;;;;;;;;10191787;29;19927;-66
2022/03/04 01:25:15;;;;;;;20.40;7.70;;;;;;;;;;10198611;29;20056;-66
2022/03/04 01:30:18;;;;;;;19.80;6.90;;;;;;;;;;10169018;29;20433;-66
2022/03/04 01:35:23;;;;;;;15.80;6.65;;;;;;;;;;10193721;29;20102;-67
2022/03/04 01:40:26;;;;;;;14.73;5.77;;;;;;;;;;10183481;29;20091;-67
2022/03/04 01:45:29;;;;;;;23.77;6.87;;;;;;;;;;10196578;29;20080;-67
2022/03/04 01:50:35;;;;;;;18.20;6.37;;;;;;;;;;10193096;29;20063;-66
2022/03/04 01:55:38;;;;;;;18.10;5.77;;;;;;;;;;10181976;29;20040;-66
2022/03/04 02:00:42;;;;;;;24.37;6.40;;;;;;;;;;10178884;29;20051;-66
2022/03/04 02:05:46;;;;;;;20.60;5.40;;;;;;;;;;10178417;29;20052;-67
2022/03/04 02:10:50;;;;;;;20.30;6.73;;;;;;;;;;10191410;29;20040;-66
2022/03/04 02:15:56;;;;;;;22.73;6.20;;;;;;;;;;10201672;29;20075;-66
2022/03/04 02:21:04;;;;;;;20.37;5.60;;;;;;;;;;10198643;29;20440;-66
2022/03/04 02:26:08;;;;;;;20.77;7.23;;;;;;;;;;10204072;29;20091;-67
2022/03/04 02:31:14;;;;;;;14.50;5.27;;;;;;;;;;10219993;23;20112;-71
2022/03/04 02:36:30;;;;;;;15.83;6.47;;;;;;;;;;10271261;28;20131;-71
2022/03/04 02:41:35;;;;;;;20.40;5.97;;;;;;;;;;10275493;28;20285;-70
2022/03/04 02:46:38;;;;;;;;;;;;;;;;;;10258499;28;20105;-71
2022/03/04 02:51:41;;;;;;;23.47;5.60;;;;;;;;;;10279586;28;19938;-71
2022/03/04 02:56:45;;;;;;;22.93;5.80;;;;;;;;;;10286314;28;20046;-71
2022/03/04 03:01:49;;;;;;;20.27;7.27;;;;;;;;;;10271054;28;20134;-72
2022/03/04 03:06:52;;;;;;;21.13;6.50;;;;;;;;;;10277057;28;20062;-71
2022/03/04 03:11:57;;;;;;;19.17;6.30;;;;;;;;;;10297741;28;20042;-71
2022/03/04 03:17:01;;;;;;;13.93;4.57;;;;;;;;;;10261388;28;20121;-71
2022/03/04 03:22:05;;;;;;;14.00;6.13;;;;;;;;;;10282411;28;20042;-71
2022/03/04 03:27:10;;;;;;;15.03;5.43;;;;;;;;;;10262637;28;20046;-71
2022/03/04 03:32:14;;;;;;;15.97;5.53;;;;;;;;;;10277309;28;20038;-71
2022/03/04 03:37:17;;;;;;;20.77;5.53;;;;;;;;;;10275309;28;20127;-69
2022/03/04 03:42:22;;;;;;;18.30;6.77;;;;;;;;;;10273488;28;20047;-70
2022/03/04 03:47:25;;;;;;;;;;;;;;;;;;10282849;28;20055;-69
2022/03/04 03:52:28;;;;;;;19.30;7.03;;;;;;;;;;10276643;28;20390;-70
2022/03/04 03:57:33;;;;;;;18.53;5.23;;;;;;;;;;10280987;28;20203;-69
2022/03/04 04:02:37;;;;;;;14.53;5.03;;;;;;;;;;10260842;28;20717;-69
2022/03/04 04:07:40;;;;;;;15.47;5.37;;;;;;;;;;10260018;28;20047;-70
2022/03/04 04:12:45;;;;;;;14.77;5.83;;;;;;;;;;10272864;28;20059;-70
2022/03/04 04:17:47;;;;;;;16.13;6.72;;;;;;;;;;10263294;28;20448;-70
2022/03/04 04:22:51;;;;;;;18.03;5.87;;;;;;;;;;10260327;28;20043;-70
2022/03/04 04:27:55;;;;;;;18.10;5.50;;;;;;;;;;10261153;28;20046;-69
2022/03/04 04:32:58;;;;;;;14.82;6.18;;;;;;;;;;10264506;28;20054;-70
2022/03/04 04:38:02;;;;;;;15.67;5.07;;;;;;;;;;10262846;28;20407;-70
2022/03/04 04:43:07;;;;;;;15.03;5.33;;;;;;;;;;10281590;28;20034;-70
2022/03/04 04:48:10;;;;;;;15.67;5.53;;;;;;;;;;10264067;28;20035;-70
2022/03/04 04:53:14;;;;;;;14.10;5.40;;;;;;;;;;10284481;28;20038;-70
2022/03/04 04:58:18;;;;;;;20.73;6.17;;;;;;;;;;10274421;28;20047;-70
2022/03/04 05:03:21;;;;;;;;;;;;;;;;;;10267695;28;20533;-70
2022/03/04 05:08:26;;;;;;;20.27;5.47;;;;;;;;;;10284970;28;19954;-69
2022/03/04 05:13:32;;;;;;;13.30;4.80;;;;;;;;;;10277514;28;20043;-69
2022/03/04 05:18:35;;;;;;;9.17;3.27;;;;;;;;;;10287130;28;20035;-70
2022/03/04 05:29:01;;;;;;;10.57;2.93;;;;;;;;;;10277631;28;20038;-68
2022/03/04 05:34:04;;;;;;;7.50;2.67;;;;;;;;;;10276397;28;20034;-70
2022/03/04 05:39:07;;;;;;;18.63;3.27;;;;;;;;;;10261402;28;20031;-71
2022/03/04 05:44:12;;;;;;;16.40;5.15;;;;;;;;;;10285110;28;20069;-70
2022/03/04 05:49:15;;;;;;;9.67;5.40;;;;;;;;;;10281801;28;20030;-69
2022/03/04 05:54:18;;;;;;;7.63;2.83;;;;;;;;;;10268844;28;20511;-69
2022/03/04 05:59:24;;;;;;;15.60;5.20;;;;;;;;;;10281486;28;20100;-69
2022/03/04 06:04:27;;;;;;;21.77;6.77;;;;;;;;;;10271264;28;20070;-69
2022/03/04 06:09:32;;;;;;;18.77;5.20;;;;;;;;;;10266836;28;20047;-68
2022/03/04 06:14:35;;;;;;;;;;;;;;;;;;10263954;28;20051;-69
2022/03/04 06:19:41;;;;;;;18.53;5.77;;;;;;;;;;10281397;28;19926;-68
2022/03/04 06:24:44;;;;;;;13.57;5.10;;;;;;;;;;10281773;28;20046;-71
2022/03/04 06:29:47;;;;;;;17.47;5.87;;;;;;;;;;10281337;28;20043;-71
2022/03/04 06:34:51;;;;;;;14.10;6.17;;;;;;;;;;10267026;28;20185;-71
2022/03/04 06:39:54;;;;;;;;;;;;;;;;;;10272780;28;20042;-70
2022/03/04 06:44:57;;;;;;;;;;;;;;;;;;10284726;28;19926;-72
2022/03/04 06:50:04;;;;;;;23.10;6.93;;;;;;;;;;10285638;28;19922;-72
2022/03/04 06:55:08;;;;;;;31.50;10.20;;;;;;;;;;10266303;28;20043;-71
2022/03/04 07:00:11;;;;;;;;;;;;;;;;;;10278242;28;20034;-68
2022/03/04 07:05:15;;;;;;;32.25;11.63;;;;;;;;;;10285423;28;19921;-71
2022/03/04 07:10:18;;;;;;;;;;;;;;;;;;10278903;28;20038;-68
2022/03/04 07:15:21;;;;;;;;;;;;;;;;;;10264313;28;19922;-70
2022/03/04 07:20:26;;;;;;;66.13;16.02;;;;;;;;;;10279433;28;20305;-68
2022/03/04 07:25:29;;;;;;;25.65;11.18;;;;;;;;;;10260995;28;20046;-71
2022/03/04 07:30:33;;;;;;;44.90;13.65;;;;;;;;;;10268603;28;20499;-72
2022/03/04 07:35:42;;;;;;;35.17;12.38;;;;;;;;;;10252759;28;20039;-72
2022/03/04 07:40:45;;;;;;;28.80;12.07;;;;;;;;;;10257682;28;20569;-72
2022/03/04 07:45:48;;;;;;;86.85;17.02;;;;;;;;;;10261137;28;20092;-71
2022/03/04 07:50:53;;;;;;;74.93;15.25;;;;;;;;;;10278795;28;20506;-71
2022/03/04 07:55:55;;;;;;;45.10;14.32;;;;;;;;;;10271740;28;20047;-71
2022/03/04 08:00:59;;;;;;;47.92;16.63;;;;;;;;;;10258972;28;20124;-69
2022/03/04 08:06:23;;;;;;;38.22;15.10;;;;;;;;;;10270745;28;20046;-70
2022/03/04 08:11:27;;;;;;;24.88;12.13;;;;;;;;;;10276407;28;20098;-71
2022/03/04 08:16:30;;;;;;;22.20;12.23;;;;;;;;;;10258153;28;20273;-72
2022/03/04 08:21:34;;;;;;;28.38;13.40;;;;;;;;;;10274962;28;20396;-72
2022/03/04 08:26:38;;;;;;;29.13;13.00;;;;;;;;;;10272323;28;20447;-72
2022/03/04 08:31:42;;;;;;;30.65;14.55;;;;;;;;;;10268052;28;20046;-69
2022/03/04 08:36:49;;;;;;;24.23;11.50;;;;;;;;;;10274894;28;20047;-72
2022/03/04 08:41:52;;;;;;;26.65;14.13;;;;;;;;;;10272670;28;20039;-72
2022/03/04 08:46:55;;;;;;;36.53;15.77;;;;;;;;;;10276160;28;20086;-72
2022/03/04 08:52:00;;;;;;;44.10;16.90;;;;;;;;;;10257365;28;20102;-72
2022/03/04 08:57:03;;;;;;;26.60;14.18;;;;;;;;;;10272009;28;20035;-72
2022/03/04 09:07:29;;;;;;;44.00;14.98;;;;;;;;;;10264673;28;20220;-72
2022/03/04 09:12:32;;;;;;;24.52;14.32;;;;;;;;;;10255373;28;20035;-72
2022/03/04 09:17:35;;;;;;;40.40;16.40;;;;;;;;;;10275742;28;20053;-71
2022/03/04 09:22:39;;;;;;;29.90;15.73;;;;;;;;;;10264677;28;20046;-71
2022/03/04 09:27:43;;;;;;;31.25;15.98;;;;;;;;;;10279932;28;20507;-71
2022/03/04 09:32:46;;;;;;;24.85;14.00;;;;;;;;;;10273732;28;20043;-72
2022/03/04 09:37:50;;;;;;;32.03;14.95;;;;;;;;;;10261239;28;20067;-72
2022/03/04 09:42:54;;;;;;;26.70;14.80;;;;;;;;;;10281921;28;20113;-72
2022/03/04 09:47:57;;;;;;;30.15;14.55;;;;;;;;;;10270758;28;20062;-72
2022/03/04 09:53:08;;;;;;;35.28;17.70;;;;;;;;;;10269499;28;20039;-71
2022/03/04 09:58:12;;;;;;;29.73;14.98;;;;;;;;;;10277396;28;20035;-71
2022/03/04 10:03:21;;;;;;;26.77;13.55;;;;;;;;;;10281748;28;20585;-71
2022/03/04 10:08:26;;;;;;;28.65;14.13;;;;;;;;;;10274254;28;20142;-71
2022/03/04 10:13:46;;;;;;;29.35;13.90;;;;;;;;;;10277709;28;20153;-70
2022/03/04 10:19:04;;;;;;;24.88;14.07;;;;;;;;;;10260476;28;20059;-71
2022/03/04 10:24:11;;;;;;;17.17;8.30;;;;;;;;;;10277116;28;20487;-71
2022/03/04 10:29:18;;;;;;;29.85;13.85;;;;;;;;;;10275752;28;20050;-71
2022/03/04 10:34:21;;;;;;;29.20;13.40;;;;;;;;;;10273655;28;20098;-72
2022/03/04 10:39:34;;;;;;;31.65;14.05;;;;;;;;;;10270824;28;20032;-69
2022/03/04 10:44:37;;;;;;;24.27;13.23;;;;;;;;;;10280475;28;20184;-71
2022/03/04 10:49:40;;;;;;;26.05;13.60;;;;;;;;;;10274256;28;20401;-70
2022/03/04 10:54:50;;;;;;;21.58;11.40;;;;;;;;;;10282506;28;20050;-72
2022/03/04 10:59:57;;;;;;;26.83;14.13;;;;;;;;;;10260368;28;20215;-71
2022/03/04 11:05:00;;;;;;;26.77;14.82;;;;;;;;;;10279434;28;20038;-69
2022/03/04 11:10:05;;;;;;;28.08;15.25;;;;;;;;;;10266485;28;20407;-71
2022/03/04 11:15:08;;;;;;;35.13;19.35;;;;;;;;;;10281600;28;20046;-71
2022/03/04 11:20:12;;;;;;;27.75;15.18;;;;;;;;;;10276709;28;20055;-72
2022/03/04 11:25:16;;;;;;;27.08;15.45;;;;;;;;;;10260660;28;20046;-68
2022/03/04 11:30:29;;;;;;;28.27;14.57;;;;;;;;;;10258446;28;20487;-71
2022/03/04 11:35:36;;;;;;;25.45;13.48;;;;;;;;;;10274791;28;20439;-70
2022/03/04 11:40:50;;;;;;;28.25;14.50;;;;;;;;;;10253686;28;20495;-70
2022/03/04 11:46:02;;;;;;;23.33;14.25;;;;;;;;;;10269219;28;20051;-71
2022/03/04 11:51:14;;;;;;;23.77;13.48;;;;;;;;;;10272137;28;20046;-71
2022/03/04 11:56:24;;;;;;;23.23;12.48;;;;;;;;;;10262394;28;20047;-70
2022/03/04 12:01:29;;;;;;;28.00;13.52;;;;;;;;;;10266682;28;20053;-72
2022/03/04 12:06:32;;;;;;;32.17;15.98;;;;;;;;;;10266981;28;20047;-72
2022/03/04 12:11:36;;;;;;;21.85;12.23;;;;;;;;;;10267642;28;20034;-71
2022/03/04 12:16:47;;;;;;;19.42;11.48;;;;;;;;;;10275111;28;20046;-71
2022/03/04 12:21:56;;;;;;;21.80;11.10;;;;;;;;;;10288107;28;20107;-71
2022/03/04 12:27:01;;;;;;;21.75;11.20;;;;;;;;;;10270619;28;20047;-69
2022/03/04 12:32:05;;;;;;;22.70;11.77;;;;;;;;;;10280652;28;20031;-71
2022/03/04 12:37:08;;;;;;;21.05;10.93;;;;;;;;;;10251823;28;20050;-70
2022/03/04 12:42:13;;;;;;;20.52;10.30;;;;;;;;;;10285496;28;20054;-71
2022/03/04 12:47:17;;;;;;;24.20;12.43;;;;;;;;;;10276697;28;20049;-71
2022/03/04 12:52:21;;;;;;;24.48;12.77;;;;;;;;;;10267617;28;20463;-71
2022/03/04 12:57:27;;;;;;;24.27;12.38;;;;;;;;;;10284776;28;20050;-71
2022/03/04 13:02:33;;;;;;;24.38;11.65;;;;;;;;;;10286997;28;20038;-72
2022/03/04 13:07:37;;;;;;;23.48;11.63;;;;;;;;;;10282769;28;20396;-71
2022/03/04 13:12:44;;;;;;;20.65;11.27;;;;;;;;;;10266050;28;20491;-72
2022/03/04 13:17:48;;;;;;;20.63;10.43;;;;;;;;;;10271868;28;20070;-70
2022/03/04 13:23:02;;;;;;;21.63;10.80;;;;;;;;;;10279547;28;20070;-72
2022/03/04 13:28:07;;;;;;;20.60;10.10;;;;;;;;;;10268035;28;20042;-70
2022/03/04 13:33:10;;;;;;;18.40;7.38;;;;;;;;;;10280232;28;20414;-71
2022/03/04 13:38:20;;;;;;;15.85;7.85;;;;;;;;;;10283834;28;20042;-70
2022/03/04 13:43:32;;;;;;;13.98;7.00;;;;;;;;;;10285936;28;20050;-72
2022/03/04 13:48:35;;;;;;;11.25;5.35;;;;;;;;;;10276824;28;20058;-71
2022/03/04 13:53:55;;;;;;;11.95;5.70;;;;;;;;;;10266947;28;20043;-71
2022/03/04 13:59:04;;;;;;;12.13;6.63;;;;;;;;;;10276037;28;20077;-71
2022/03/04 14:04:08;;;;;;;13.07;5.95;;;;;;;;;;10263332;28;20034;-69
2022/03/04 14:09:12;;;;;;;14.85;6.45;;;;;;;;;;10265394;28;20043;-72
2022/03/04 14:14:15;;;;;;;;;;;;;;;;;;10261775;28;20529;-71
2022/03/04 14:19:20;;;;;;;13.75;6.15;;;;;;;;;;10258895;28;19930;-71
2022/03/04 14:24:23;;;;;;;12.68;6.30;;;;;;;;;;10278790;28;20034;-71
2022/03/04 14:29:26;;;;;;;14.25;6.40;;;;;;;;;;10271037;28;20570;-70
2022/03/04 14:34:30;;;;;;;13.93;6.07;;;;;;;;;;10262912;28;20047;-70
2022/03/04 14:39:33;;;;;;;14.85;6.20;;;;;;;;;;10277828;28;20054;-71
2022/03/04 14:44:37;;;;;;;16.38;6.53;;;;;;;;;;10265324;28;20578;-70
2022/03/04 14:49:41;;;;;;;13.17;6.00;;;;;;;;;;10261374;28;20050;-69
2022/03/04 14:54:45;;;;;;;14.77;5.80;;;;;;;;;;10279815;28;20402;-69
2022/03/04 15:00:02;;;;;;;13.43;4.75;;;;;;;;;;10262104;28;20486;-68
2022/03/04 15:05:07;;;;;;;11.75;5.00;;;;;;;;;;10290978;28;20475;-70
2022/03/04 15:10:10;;;;;;;5.43;2.60;;;;;;;;;;10273576;28;20039;-68
2022/03/04 15:15:15;;;;;;;6.30;2.72;;;;;;;;;;10284504;28;20726;-70
2022/03/04 15:20:23;;;;;;;9.20;3.67;;;;;;;;;;10283811;28;20571;-70
2022/03/04 15:25:26;;;;;;;7.80;3.38;;;;;;;;;;10262651;28;20118;-71
2022/03/04 15:30:29;;;;;;;7.47;3.35;;;;;;;;;;10287676;28;20138;-70
2022/03/04 15:35:33;;;;;;;8.27;3.53;;;;;;;;;;10284464;28;20042;-71
2022/03/04 15:40:36;;;;;;;9.70;3.55;;;;;;;;;;10264393;28;20071;-71
2022/03/04 15:45:38;;;;;;;8.73;3.63;;;;;;;;;;10260973;28;20038;-69
2022/03/04 15:50:43;;;;;;;11.77;3.92;;;;;;;;;;10280760;28;20130;-68
2022/03/04 15:55:46;;;;;;;9.68;4.22;;;;;;;;;;10250971;28;20047;-70
2022/03/04 16:00:50;;;;;;;;;;;;;;;;;;10260254;28;20061;-71
2022/03/04 16:05:54;;;;;;;8.02;3.08;;;;;;;;;;10274011;28;20283;-71
2022/03/04 16:10:57;;;;;;;10.38;4.05;;;;;;;;;;10267529;28;20039;-71
2022/03/04 16:16:00;;;;;;;7.68;2.63;;;;;;;;;;10264834;28;20070;-70
2022/03/04 16:21:04;;;;;;;5.97;2.20;;;;;;;;;;10270813;28;20129;-69
2022/03/04 16:26:10;;;;;;;17.75;3.13;;;;;;;;;;10262550;28;20043;-70
2022/03/04 16:31:13;;;;;;;6.20;2.30;;;;;;;;;;10269158;28;20070;-71
2022/03/04 16:36:24;;;;;;;4.65;2.10;;;;;;;;;;10271248;28;20129;-70
2022/03/04 16:41:27;;;;;;;6.25;2.45;;;;;;;;;;10289445;28;20039;-70
2022/03/04 16:46:31;;;;;;;3.75;2.00;;;;;;;;;;10269330;28;20043;-71
2022/03/04 16:51:55;;;;;;;4.57;2.20;;;;;;;;;;10285509;28;20035;-71
2022/03/04 16:56:58;;;;;;;6.22;2.47;;;;;;;;;;10270408;28;20093;-70
2022/03/04 17:02:01;;;;;;;9.93;3.40;;;;;;;;;;10260380;28;20035;-71
2022/03/04 17:07:12;;;;;;;9.00;2.70;;;;;;;;;;10266441;28;20796;-69
2022/03/04 17:12:16;;;;;;;8.50;3.30;;;;;;;;;;10272540;28;20039;-66
2022/03/04 17:17:20;;;;;;;8.53;2.80;;;;;;;;;;10274820;28;20122;-71
2022/03/04 17:22:24;;;;;;;7.93;3.30;;;;;;;;;;10276248;28;20455;-70
2022/03/04 17:27:28;;;;;;;6.83;3.27;;;;;;;;;;10268530;28;20287;-70
2022/03/04 17:32:33;;;;;;;6.23;2.57;;;;;;;;;;10280286;28;20035;-70
2022/03/04 17:37:38;;;;;;;5.82;2.85;;;;;;;;;;10267720;28;20420;-71
2022/03/04 17:42:41;;;;;;;8.40;3.03;;;;;;;;;;10284000;28;20517;-71
2022/03/04 17:47:44;;;;;;;11.93;3.07;;;;;;;;;;10283768;28;20039;-71
2022/03/04 17:52:48;;;;;;;7.75;2.95;;;;;;;;;;10274102;28;20094;-71
2022/03/04 17:57:51;;;;;;;8.05;2.60;;;;;;;;;;10282905;28;20091;-68
2022/03/04 18:02:54;;;;;;;7.13;3.17;;;;;;;;;;10276302;28;20073;-68
2022/03/04 18:07:59;;;;;;;10.87;3.20;;;;;;;;;;10271828;28;20058;-70
2022/03/04 18:13:01;;;;;;;;;;;;;;;;;;10282152;28;20070;-71
2022/03/04 18:18:04;;;;;;;8.03;3.10;;;;;;;;;;10279518;28;19958;-70
2022/03/04 18:23:10;;;;;;;8.02;2.70;;;;;;;;;;10270756;28;20038;-71
2022/03/04 18:28:13;;;;;;;;;;;;;;;;;;10278795;28;20069;-70
2022/03/04 18:33:17;;;;;;;5.22;2.33;;;;;;;;;;10279918;28;20347;-69
2022/03/04 18:43:42;;;;;;;6.63;2.77;;;;;;;;;;10279599;28;20039;-71
2022/03/04 18:48:46;;;;;;;13.87;3.30;;;;;;;;;;10258674;28;20051;-71
2022/03/04 18:53:50;;;;;;;7.80;2.70;;;;;;;;;;10267650;28;20510;-70
2022/03/04 18:58:53;;;;;;;;;;;;;;;;;;10274534;28;20034;-71
2022/03/04 19:03:56;;;;;;;8.70;3.77;;;;;;;;;;10270407;28;19922;-70
2022/03/04 19:09:00;;;;;;;5.50;2.27;;;;;;;;;;10258298;28;20047;-69
2022/03/04 19:14:03;;;;;;;;;;;;;;;;;;10279477;28;20034;-70
2022/03/04 19:19:07;;;;;;;4.40;1.90;;;;;;;;;;10265722;28;20309;-72
2022/03/04 19:24:11;;;;;;;8.77;3.30;;;;;;;;;;10262731;28;20055;-71
2022/03/04 19:29:15;;;;;;;5.03;2.30;;;;;;;;;;10266695;28;20049;-71
2022/03/04 19:34:18;;;;;;;6.97;2.73;;;;;;;;;;10274587;28;20035;-72
2022/03/04 19:39:23;;;;;;;13.43;4.05;;;;;;;;;;10268122;28;20043;-72
2022/03/04 19:44:30;;;;;;;8.30;3.10;;;;;;;;;;10262099;28;20526;-71
2022/03/04 19:49:33;;;;;;;15.60;3.87;;;;;;;;;;10274384;28;20070;-72
2022/03/04 19:54:38;;;;;;;10.17;3.63;;;;;;;;;;10278992;28;20094;-71
2022/03/04 19:59:42;;;;;;;8.80;3.20;;;;;;;;;;10273407;28;20078;-72
2022/03/04 20:04:45;;;;;;;9.07;3.60;;;;;;;;;;10265556;28;20188;-71
2022/03/04 20:09:49;;;;;;;;;;;;;;;;;;10259311;28;20070;-69
2022/03/04 20:14:53;;;;;;;6.30;3.03;;;;;;;;;;10272869;28;19933;-70
2022/03/04 20:19:57;;;;;;;8.50;3.57;;;;;;;;;;10276738;28;20050;-70
2022/03/04 20:25:00;;;;;;;7.03;3.03;;;;;;;;;;10259463;28;20499;-68
2022/03/04 20:30:05;;;;;;;8.50;3.50;;;;;;;;;;10276060;28;20495;-71
2022/03/04 20:35:09;;;;;;;10.60;4.07;;;;;;;;;;10267438;28;20035;-71
2022/03/04 20:40:13;;;;;;;10.43;3.87;;;;;;;;;;10273778;28;20112;-70
2022/03/04 20:45:17;;;;;;;11.48;3.42;;;;;;;;;;10278691;28;20042;-70
2022/03/04 20:50:20;;;;;;;9.40;3.83;;;;;;;;;;10253326;28;20063;-69
2022/03/04 20:55:23;;;;;;;5.30;2.53;;;;;;;;;;10264091;28;20046;-70
2022/03/04 21:00:42;;;;;;;5.50;2.40;;;;;;;;;;10257504;28;20046;-71
2022/03/04 21:05:45;;;;;;;8.33;3.27;;;;;;;;;;10274655;28;20035;-70
2022/03/04 21:10:49;;;;;;;9.73;3.22;;;;;;;;;;10256429;28;20074;-70
2022/03/04 21:15:53;;;;;;;12.87;3.90;;;;;;;;;;10279906;28;20791;-70
2022/03/04 21:20:56;;;;;;;4.50;2.73;;;;;;;;;;10281270;28;20046;-71
2022/03/04 21:25:59;;;;;;;4.47;2.53;;;;;;;;;;10275940;28;20421;-68
2022/03/04 21:31:04;;;;;;;12.40;4.97;;;;;;;;;;10289164;28;20667;-70
2022/03/04 21:36:07;;;;;;;11.67;3.47;;;;;;;;;;10281421;28;20034;-72
2022/03/04 21:41:10;;;;;;;11.00;4.50;;;;;;;;;;10266659;28;20062;-71
2022/03/04 21:46:15;;;;;;;4.77;2.07;;;;;;;;;;10270617;23;20053;-72
2022/03/04 21:51:18;;;;;;;;;;;;;;;;;;10234698;28;20035;-73
2022/03/04 21:56:21;;;;;;;6.07;2.13;;;;;;;;;;10259468;28;20589;-72
2022/03/04 22:01:26;;;;;;;14.47;4.30;;;;;;;;;;10253729;28;20163;-71
2022/03/04 22:06:30;;;;;;;11.77;3.67;;;;;;;;;;10240734;28;20063;-74
2022/03/04 22:11:33;;;;;;;13.70;3.73;;;;;;;;;;10251780;28;20510;-72
2022/03/04 22:16:37;;;;;;;14.07;4.43;;;;;;;;;;10230194;29;20050;-71
2022/03/04 22:21:41;;;;;;;9.43;3.43;;;;;;;;;;10243463;29;20131;-72
2022/03/04 22:26:45;;;;;;;12.77;3.55;;;;;;;;;;10244853;28;20051;-71
2022/03/04 22:31:50;;;;;;;10.77;3.73;;;;;;;;;;10249756;28;20035;-72
2022/03/04 22:36:52;;;;;;;15.95;4.05;;;;;;;;;;10247842;28;20065;-70
2022/03/04 22:41:55;;;;;;;15.13;4.33;;;;;;;;;;10234995;28;20051;-72
2022/03/04 22:46:59;;;;;;;10.00;3.67;;;;;;;;;;10232247;28;20055;-71
2022/03/04 22:52:02;;;;;;;;;;;;;;;;;;10246757;28;20043;-70
2022/03/04 22:57:05;;;;;;;16.37;3.80;;;;;;;;;;10227539;28;20406;-71
2022/03/04 23:02:10;;;;;;;14.30;4.47;;;;;;;;;;10230554;28;20134;-70
2022/03/04 23:12:34;;;;;;;11.17;3.23;;;;;;;;;;10224844;28;20090;-71
2022/03/04 23:17:39;;;;;;;15.47;4.73;;;;;;;;;;10232155;29;20035;-71
2022/03/04 23:22:42;;;;;;;9.77;3.97;;;;;;;;;;10234077;28;20530;-69
2022/03/04 23:27:45;;;;;;;12.68;4.05;;;;;;;;;;10241419;28;20049;-70
2022/03/04 23:33:01;;;;;;;9.93;3.33;;;;;;;;;;10224969;28;20054;-71
2022/03/04 23:38:04;;;;;;;9.45;3.20;;;;;;;;;;10229408;29;20475;-71
2022/03/04 23:43:07;;;;;;;10.03;3.97;;;;;;;;;;10235482;28;20126;-71
2022/03/04 23:48:11;;;;;;;10.70;3.87;;;;;;;;;;10230316;29;20385;-71
2022/03/04 23:53:14;;;;;;;14.45;4.47;;;;;;;;;;10225946;28;20649;-70
2022/03/04 23:58:18;;;;;;;17.73;4.87;;;;;;;;;;10228358;28;20036;-70
